地図

経路データ

SID SEASON NUMBER BASIN SUBBASIN NAME ISO_TIME NATURE LAT LON WMO_WIND WMO_PRES WMO_AGENCY TRACK_TYPE DIST2LAND LANDFALL IFLAG USA_AGENCY USA_ATCF_ID USA_LAT USA_LON USA_RECORD USA_STATUS USA_WIND USA_PRES USA_SSHS USA_R34_NE USA_R34_SE USA_R34_SW USA_R34_NW USA_R50_NE USA_R50_SE USA_R50_SW USA_R50_NW USA_R64_NE USA_R64_SE USA_R64_SW USA_R64_NW USA_POCI USA_ROCI USA_RMW USA_EYE TOKYO_LAT TOKYO_LON TOKYO_GRADE TOKYO_WIND TOKYO_PRES TOKYO_R50_DIR TOKYO_R50_LONG TOKYO_R50_SHORT TOKYO_R30_DIR TOKYO_R30_LONG TOKYO_R30_SHORT TOKYO_LAND CMA_LAT CMA_LON CMA_CAT CMA_WIND CMA_PRES HKO_LAT HKO_LON HKO_CAT HKO_WIND HKO_PRES NEWDELHI_LAT NEWDELHI_LON NEWDELHI_GRADE NEWDELHI_WIND NEWDELHI_PRES NEWDELHI_CI NEWDELHI_DP NEWDELHI_POCI REUNION_LAT REUNION_LON REUNION_TYPE REUNION_WIND REUNION_PRES REUNION_TNUM REUNION_CI REUNION_RMW REUNION_R34_NE REUNION_R34_SE REUNION_R34_SW REUNION_R34_NW REUNION_R50_NE REUNION_R50_SE REUNION_R50_SW REUNION_R50_NW REUNION_R64_NE REUNION_R64_SE REUNION_R64_SW REUNION_R64_NW BOM_LAT BOM_LON BOM_TYPE BOM_WIND BOM_PRES BOM_TNUM BOM_CI BOM_RMW BOM_R34_NE BOM_R34_SE BOM_R34_SW BOM_R34_NW BOM_R50_NE BOM_R50_SE BOM_R50_SW BOM_R50_NW BOM_R64_NE BOM_R64_SE BOM_R64_SW BOM_R64_NW BOM_ROCI BOM_POCI BOM_EYE BOM_POS_METHOD BOM_PRES_METHOD NADI_LAT NADI_LON NADI_CAT NADI_WIND NADI_PRES WELLINGTON_LAT WELLINGTON_LON WELLINGTON_WIND WELLINGTON_PRES DS824_LAT DS824_LON DS824_STAGE DS824_WIND DS824_PRES TD9636_LAT TD9636_LON TD9636_STAGE TD9636_WIND TD9636_PRES TD9635_LAT TD9635_LON TD9635_WIND TD9635_PRES TD9635_ROCI NEUMANN_LAT NEUMANN_LON NEUMANN_CLASS NEUMANN_WIND NEUMANN_PRES MLC_LAT MLC_LON MLC_CLASS MLC_WIND MLC_PRES USA_GUST BOM_GUST BOM_GUST_PER REUNION_GUST REUNION_GUST_PER USA_SEAHGT USA_SEARAD_NE USA_SEARAD_SE USA_SEARAD_SW USA_SEARAD_NW STORM_SPEED STORM_DIR
1971309N23172 1971 146 WP MM NOT_NAMED 1971-11-05 00:00:00 TS 22.8000 171.900 main 2905 2905 __O___________ -1 22.8000 171.900 1 23 1008 20 281
1971309N23172 1971 146 WP MM NOT_NAMED 1971-11-05 03:00:00 TS 22.9964 170.843 main 3016 3016 __P___________ -1 22.9964 170.843 1 23 1007 20 282
1971309N23172 1971 146 WP MM NOT_NAMED 1971-11-05 06:00:00 TS 23.2000 169.800 main 3082 3009 __O___________ -1 23.2000 169.800 1 23 1006 19 282
1971309N23172 1971 146 WP MM NOT_NAMED 1971-11-05 09:00:00 TS 23.4144 168.785 main 3009 2920 __P___________ -1 23.4144 168.785 1 23 1006 19 282
1971309N23172 1971 146 WP MM NOT_NAMED 1971-11-05 12:00:00 TS 23.6000 167.800 main 2912 2830 __O___________ -1 23.6000 167.800 1 23 1006 18 279
1971309N23172 1971 146 WP MM NOT_NAMED 1971-11-05 15:00:00 TS 23.6991 166.849 main 2821 2748 __P___________ -1 23.6991 166.849 1 23 1006 18 277
1971309N23172 1971 146 WP MM NOT_NAMED 1971-11-05 18:00:00 TS 23.8000 165.900 main 2739 2643 __O___________ -1 23.8000 165.900 1 23 1006 18 279
1971309N23172 1971 146 WP MM NOT_NAMED 1971-11-05 21:00:00 TS 23.9927 164.870 main 2643 2548 __P___________ -1 23.9927 164.870 1 23 1006 19 282
1971309N23172 1971 146 WP MM NOT_NAMED 1971-11-06 00:00:00 TS 24.2000 163.900 main 2548 2484 __O___________ -1 24.2000 163.900 1 23 1006 16 282
1971309N23172 1971 146 WP MM NOT_NAMED 1971-11-06 03:00:00 TS 24.3414 163.119 main 2476 2405 __P___________ -1 24.3414 163.119 1 23 1006 14 282
1971309N23172 1971 146 WP MM NOT_NAMED 1971-11-06 06:00:00 TS 24.5000 162.400 main 2405 2327 __O___________ -1 24.5000 162.400 1 23 1006 14 286
1971309N23172 1971 146 WP MM NOT_NAMED 1971-11-06 09:00:00 TS 24.7349 161.593 main 2327 2242 __P___________ -1 24.7349 161.593 1 23 1006 15 289
1971309N23172 1971 146 WP MM NOT_NAMED 1971-11-06 12:00:00 TS 25.0000 160.800 main 2242 2173 __O___________ -1 25.0000 160.800 1 23 1006 15 290
1971309N23172 1971 146 WP MM NOT_NAMED 1971-11-06 15:00:00 TS 25.2501 160.025 main 2158 2096 __P___________ -1 25.2501 160.025 1 23 1006 14 292
1971309N23172 1971 146 WP MM NOT_NAMED 1971-11-06 18:00:00 TS 25.5000 159.400 main 2096 2051 __O___________ -1 25.5000 159.400 1 23 1006 11 296
1971309N23172 1971 146 WP MM NOT_NAMED 1971-11-06 21:00:00 TS 25.7196 158.972 main 2051 2015 __P___________ -1 25.7196 158.972 1 21 1006 7 313
1971309N23172 1971 146 WP MM NOT_NAMED 1971-11-07 00:00:00 TS 26.0000 158.800 main 2015 1988 __O___________ -1 26.0000 158.800 0 19 1006 7 350
1971309N23172 1971 146 WP MM NOT_NAMED 1971-11-07 03:00:00 TS 26.4047 158.838 main 1988 1979 __P___________ -1 26.4047 158.838 0 19 1006 9 17
1971309N23172 1971 146 WP MM NOT_NAMED 1971-11-07 06:00:00 TS 26.9000 159.100 main 1981 1974 __O___________ -1 26.9000 159.100 0 19 1006 12 31
1971309N23172 1971 146 WP MM NOT_NAMED 1971-11-07 09:00:00 TS 27.4129 159.527 main 1983 1982 __P___________ -1 27.4129 159.527 0 19 1006 14 36
1971309N23172 1971 146 WP MM NOT_NAMED 1971-11-07 12:00:00 TS 28.0000 160.000 main 1990 1982 __O___________ -1 28.0000 160.000 0 19 1006 15 29
1971309N23172 1971 146 WP MM NOT_NAMED 1971-11-07 15:00:00 TS 28.6774 160.338 main 1977 1968 __P___________ -1 28.6774 160.338 0 19 1006 15 21
1971309N23172 1971 146 WP MM NOT_NAMED 1971-11-07 18:00:00 TS 29.4000 160.600 main 1968 1952 __O___________ -1 29.4000 160.600 0 19 1006 15 16
1971309N23172 1971 146 WP MM NOT_NAMED 1971-11-07 21:00:00 TS 30.1076 160.812 main 1952 1915 __P___________ -1 30.1076 160.812 0 19 1006 14 14
1971309N23172 1971 146 WP MM NOT_NAMED 1971-11-08 00:00:00 TS 30.8000 161.000 main 1915 __O___________ -1 30.8000 161.000 0 19 1006 14 13

デジタル台風データ・検索

IBTrACS Databaseについて

本データベースは、米国NOAAが公開する1842年以降の世界の熱帯低気圧のベストトラックデータアーカイブInternational Best Track Archive for Climate Stewardship (IBTrACS)を、ウェブで閲覧しやすい形式に変換したものです。

最終更新日:2021-10-21